createdAt,value
2022-12-26T04:43:49.087Z,15.30
2022-12-26T04:58:46.304Z,15.20
2022-12-26T05:13:52.117Z,15.30
2022-12-26T05:29:01.009Z,15.40
2022-12-26T05:44:06.507Z,15.10
2022-12-26T05:59:11.508Z,15.00
2022-12-26T06:14:15.873Z,14.90
2022-12-26T06:29:20.320Z,14.70
2022-12-26T06:44:24.793Z,14.60
2022-12-26T06:59:29.252Z,14.40
2022-12-26T07:14:33.746Z,14.90
2022-12-26T07:29:38.215Z,15.10
2022-12-26T07:44:42.944Z,14.60
2022-12-26T07:59:47.360Z,14.70
2022-12-26T08:14:52.707Z,14.80
2022-12-26T08:29:57.247Z,14.60
2022-12-26T08:45:01.716Z,14.60
2022-12-26T09:00:08.923Z,14.70
2022-12-26T09:15:13.590Z,14.70
2022-12-26T09:30:18.221Z,14.50
2022-12-26T09:45:33.119Z,14.60
2022-12-26T10:00:45.192Z,15.10
2022-12-26T10:15:54.650Z,14.90
2022-12-26T10:31:01.313Z,15.10
2022-12-26T10:46:44.607Z,15.10
2022-12-26T11:01:49.890Z,15.10
2022-12-26T11:16:55.022Z,14.80
2022-12-26T11:32:01.496Z,15.10
2022-12-26T11:47:12.822Z,14.90
2022-12-26T12:02:25.056Z,14.90
2022-12-26T12:17:39.986Z,14.00
2022-12-26T12:33:02.302Z,13.50
2022-12-26T12:48:21.327Z,13.40
2022-12-26T13:03:34.368Z,13.10
2022-12-26T13:18:45.587Z,13.20
2022-12-26T13:33:50.173Z,13.20
2022-12-26T13:49:00.407Z,13.50
2022-12-26T14:04:24.704Z,13.50
2022-12-26T14:19:44.008Z,13.90
2022-12-26T14:35:01.276Z,13.90
2022-12-26T14:50:44.583Z,13.60
2022-12-26T15:05:52.042Z,13.70
2022-12-26T15:21:25.338Z,13.20
2022-12-26T15:36:37.510Z,13.00
2022-12-26T15:51:55.851Z,12.80
2022-12-26T16:07:24.247Z,12.40
2022-12-26T16:22:47.654Z,12.20
2022-12-26T16:37:53.343Z,12.50
2022-12-26T16:53:13.455Z,12.20
2022-12-26T17:08:18.014Z,12.30
2022-12-26T17:23:40.157Z,12.30
2022-12-26T17:38:46.556Z,12.20
2022-12-26T17:53:52.624Z,12.50
2022-12-26T18:08:58.185Z,12.10
2022-12-26T18:24:02.574Z,11.80
2022-12-26T18:39:07.300Z,11.80
2022-12-26T18:54:11.766Z,12.10
2022-12-26T19:09:16.752Z,12.70
2022-12-26T19:24:21.267Z,12.60
2022-12-26T19:39:25.683Z,12.90
2022-12-26T19:54:30.147Z,12.50
2022-12-26T20:09:34.729Z,12.70
2022-12-26T20:24:39.168Z,12.50
2022-12-26T20:39:43.540Z,12.20
2022-12-26T20:54:48.307Z,12.10
2022-12-26T21:09:52.726Z,12.10
